Time;durP1;ratioP1;P1;durP2;ratioP2;P2;SDS_P1;SDS_P2;PMS_P1;PMS_P2;Temp;Humidity;BMP_temperature;BMP_pressure;BME280_temperature;BME280_humidity;BME280_pressure;Samples;Min_cycle;Max_cycle;Signal;HPM_P1;HPM_P2
2022/04/08 00:02:05;;;;;;;2.35;0.50;;;;;11.70;99480.00;;;;5061668;28;20827;-81
2022/04/08 00:04:33;;;;;;;2.53;0.68;;;;;11.70;99488.00;;;;5051817;28;20203;-81
2022/04/08 00:07:02;;;;;;;4.50;0.95;;;;;11.70;99480.00;;;;5048970;28;20245;-82
2022/04/08 00:09:29;;;;;;;2.97;0.50;;;;;11.70;99490.00;;;;5060411;28;20587;-81
2022/04/08 00:11:57;;;;;;;2.90;0.90;;;;;11.70;99505.00;;;;5051075;28;20196;-80
2022/04/08 00:14:25;;;;;;;1.98;0.80;;;;;11.70;99508.00;;;;5054356;28;20938;-81
2022/04/08 00:16:52;;;;;;;2.15;0.43;;;;;11.70;99504.00;;;;5056208;28;20207;-80
2022/04/08 00:19:19;;;;;;;3.65;0.90;;;;;11.70;99516.00;;;;5063699;28;20203;-80
2022/04/08 00:21:48;;;;;;;3.30;0.80;;;;;11.70;99513.00;;;;5057801;28;20330;-81
2022/04/08 00:24:18;;;;;;;8.07;0.63;;;;;11.70;99507.00;;;;5060352;28;20241;-81
2022/04/08 00:26:46;;;;;;;5.75;1.00;;;;;11.70;99511.00;;;;5049677;28;20288;-82
2022/04/08 00:29:13;;;;;;;1.98;0.60;;;;;11.70;99520.00;;;;5062588;28;20218;-80
2022/04/08 00:31:41;;;;;;;3.63;0.52;;;;;11.70;99522.00;;;;5057817;28;20666;-81
2022/04/08 00:34:08;;;;;;;3.25;0.50;;;;;11.70;99543.00;;;;5064274;28;20215;-81
2022/04/08 00:36:35;;;;;;;4.95;0.85;;;;;11.70;99547.00;;;;5069293;28;20191;-81
2022/04/08 00:39:03;;;;;;;4.32;1.00;;;;;11.70;99544.00;;;;5052500;28;20188;-82
2022/04/08 00:41:31;;;;;;;1.65;0.77;;;;;11.70;99544.00;;;;5064664;28;20199;-81
2022/04/08 00:43:58;;;;;;;2.22;0.80;;;;;11.60;99538.00;;;;5061020;28;20204;-82
2022/04/08 00:46:26;;;;;;;3.55;0.75;;;;;11.60;99545.00;;;;5068143;28;20202;-82
2022/04/08 00:48:53;;;;;;;4.20;0.70;;;;;11.60;99543.00;;;;5060741;28;20210;-82
2022/04/08 00:51:21;;;;;;;4.35;1.17;;;;;11.50;99543.00;;;;5071367;28;20210;-82
2022/04/08 00:53:50;;;;;;;2.67;0.63;;;;;11.60;99554.00;;;;5068142;28;20198;-83
2022/04/08 00:56:21;;;;;;;3.72;0.68;;;;;11.60;99550.00;;;;5065237;28;20207;-82
2022/04/08 00:58:49;;;;;;;3.67;0.45;;;;;11.60;99563.00;;;;5065158;28;20199;-83
2022/04/08 01:01:17;;;;;;;2.75;0.73;;;;;11.60;99548.00;;;;5072626;28;20421;-82
2022/04/08 01:03:44;;;;;;;3.10;0.50;;;;;11.60;99551.00;;;;5074502;28;20188;-83
2022/04/08 01:06:15;;;;;;;5.53;0.75;;;;;11.50;99569.00;;;;5076272;28;20521;-82
2022/04/08 01:08:43;;;;;;;2.00;0.43;;;;;11.50;99566.00;;;;5075788;28;20215;-82
2022/04/08 01:11:45;;;;;;;6.40;0.70;;;;;11.40;99577.00;;;;5059727;28;20596;-82
2022/04/08 01:14:31;;;;;;;3.28;0.73;;;;;11.30;99591.00;;;;5065147;28;20280;-82
2022/04/08 01:16:59;;;;;;;4.45;1.02;;;;;11.40;99594.00;;;;5057769;28;20191;-82
2022/04/08 01:20:12;;;;;;;3.00;0.70;;;;;11.30;99596.00;;;;5062460;28;20584;-83
2022/04/08 01:22:46;;;;;;;5.32;0.93;;;;;11.30;99610.00;;;;5075789;28;20225;-83
2022/04/08 01:25:14;;;;;;;1.05;0.57;;;;;11.30;99601.00;;;;5068464;28;20194;-83
2022/04/08 01:27:52;;;;;;;3.65;0.63;;;;;11.30;99604.00;;;;5070392;28;20187;-83
2022/04/08 01:30:38;;;;;;;6.15;1.33;;;;;11.20;99604.00;;;;5071826;28;20241;-82
2022/04/08 01:33:05;;;;;;;2.53;0.75;;;;;11.30;99608.00;;;;5054331;28;20235;-83
2022/04/08 01:35:50;;;;;;;4.05;1.40;;;;;11.20;99609.00;;;;5066972;28;20199;-83
2022/04/08 01:38:28;;;;;;;5.40;0.80;;;;;11.20;99613.00;;;;5059288;28;20186;-83
2022/04/08 01:41:03;;;;;;;2.90;0.75;;;;;11.20;99609.00;;;;5056701;28;20188;-83
2022/04/08 01:43:37;;;;;;;5.85;1.00;;;;;11.10;99624.00;;;;5061919;28;20558;-83
2022/04/08 01:46:05;;;;;;;4.10;0.80;;;;;11.20;99631.00;;;;5056312;28;20653;-83
2022/04/08 01:48:33;;;;;;;5.22;0.95;;;;;11.20;99622.00;;;;5066298;28;20210;-82
2022/04/08 01:51:13;;;;;;;5.80;1.02;;;;;11.00;99611.00;;;;5068951;28;20180;-83
2022/04/08 01:54:06;;;;;;;5.18;0.80;;;;;11.00;99616.00;;;;5067075;28;20565;-83
2022/04/08 01:56:36;;;;;;;3.50;1.02;;;;;11.00;99621.00;;;;5067430;28;20206;-83
2022/04/08 01:59:04;;;;;;;4.28;0.50;;;;;11.00;99615.00;;;;5063578;28;20554;-83
2022/04/08 02:01:34;;;;;;;3.15;0.50;;;;;11.00;99617.00;;;;5072974;28;20191;-82
2022/04/08 02:04:13;;;;;;;2.75;0.88;;;;;10.90;99627.00;;;;5071142;28;20202;-83
2022/04/08 02:07:01;;;;;;;2.83;0.75;;;;;10.90;99616.00;;;;5054770;28;20214;-83
2022/04/08 02:09:35;;;;;;;3.30;0.95;;;;;10.90;99625.00;;;;5058041;28;20234;-83
2022/04/08 02:12:12;;;;;;;3.05;0.52;;;;;10.80;99616.00;;;;5059214;28;20187;-83
2022/04/08 02:14:46;;;;;;;1.88;0.38;;;;;10.80;99624.00;;;;5059147;28;20183;-83
2022/04/08 02:17:25;;;;;;;4.03;0.73;;;;;10.80;99627.00;;;;5072404;28;20565;-83
2022/04/08 02:19:54;;;;;;;4.60;0.73;;;;;10.80;99625.00;;;;5055590;28;20183;-83
2022/04/08 02:22:30;;;;;;;5.18;1.10;;;;;10.80;99642.00;;;;5060265;28;20204;-83
2022/04/08 02:25:11;;;;;;;2.40;0.55;;;;;10.70;99639.00;;;;5065578;28;20561;-83
2022/04/08 02:27:46;;;;;;;2.40;0.57;;;;;10.70;99638.00;;;;5055113;28;20659;-83
2022/04/08 02:30:14;;;;;;;4.50;1.05;;;;;10.80;99639.00;;;;5059708;28;20368;-82
2022/04/08 02:32:41;;;;;;;4.15;1.00;;;;;10.80;99645.00;;;;5068300;28;20202;-83
2022/04/08 02:35:27;;;;;;;3.55;0.70;;;;;10.70;99647.00;;;;5040004;28;20223;-82
2022/04/08 02:37:55;;;;;;;4.13;0.65;;;;;10.80;99653.00;;;;5054385;28;20195;-81
2022/04/08 02:40:41;;;;;;;3.70;0.80;;;;;10.70;99669.00;;;;5044360;28;20663;-83
2022/04/08 02:43:20;;;;;;;4.25;0.75;;;;;10.70;99656.00;;;;5048405;28;20369;-82
2022/04/08 02:45:55;;;;;;;3.47;0.65;;;;;10.70;99649.00;;;;5039511;28;20584;-81
2022/04/08 02:48:22;;;;;;;2.15;0.68;;;;;10.80;99672.00;;;;5041927;28;20267;-83
2022/04/08 02:51:04;;;;;;;1.40;0.52;;;;;10.70;99660.00;;;;5038524;28;20215;-83
2022/04/08 02:53:42;;;;;;;2.40;0.70;;;;;10.60;99674.00;;;;5044223;28;20688;-82
2022/04/08 02:56:18;;;;;;;1.73;0.77;;;;;10.70;99671.00;;;;5047744;28;20656;-82
2022/04/08 02:58:48;;;;;;;1.27;0.30;;;;;10.70;99666.00;;;;5048911;28;20199;-82
2022/04/08 03:01:16;;;;;;;2.60;0.60;;;;;10.80;99672.00;;;;5034332;28;20263;-82
2022/04/08 03:03:43;;;;;;;1.98;0.45;;;;;10.80;99664.00;;;;5037213;28;20198;-82
2022/04/08 03:06:10;;;;;;;1.85;0.43;;;;;10.80;99655.00;;;;5044474;28;20200;-82
2022/04/08 03:08:37;;;;;;;1.02;0.17;;;;;10.80;99656.00;;;;5032520;28;20196;-82
2022/04/08 03:11:06;;;;;;;0.70;0.20;;;;;10.80;99665.00;;;;5044868;28;20285;-82
2022/04/08 03:13:33;;;;;;;1.30;0.32;;;;;10.80;99667.00;;;;5033884;28;20203;-82
2022/04/08 03:16:02;;;;;;;3.08;0.40;;;;;10.80;99679.00;;;;5044790;28;20238;-83
2022/04/08 03:18:29;;;;;;;2.92;0.30;;;;;10.80;99676.00;;;;5037451;28;20196;-82
2022/04/08 03:20:57;;;;;;;0.90;0.35;;;;;10.70;99679.00;;;;5030568;28;20212;-82
2022/04/08 03:23:24;;;;;;;4.05;0.50;;;;;10.70;99685.00;;;;5034171;28;20191;-83
2022/04/08 03:25:51;;;;;;;1.98;0.40;;;;;10.70;99687.00;;;;5047570;28;20669;-82
2022/04/08 03:28:18;;;;;;;1.27;0.28;;;;;10.70;99687.00;;;;5039777;28;20193;-83
2022/04/08 03:30:46;;;;;;;1.27;0.30;;;;;10.70;99695.00;;;;5035266;28;20212;-83
2022/04/08 03:33:14;;;;;;;0.88;0.30;;;;;10.60;99704.00;;;;5039953;28;20250;-83
2022/04/08 03:35:41;;;;;;;1.65;0.30;;;;;10.60;99701.00;;;;5064498;28;20675;-83
2022/04/08 03:38:09;;;;;;;1.63;0.45;;;;;10.50;99700.00;;;;5053476;28;20226;-83
2022/04/08 03:40:36;;;;;;;4.53;0.70;;;;;10.50;99708.00;;;;5048475;28;20658;-82
2022/04/08 03:43:04;;;;;;;3.42;0.28;;;;;10.50;99711.00;;;;5062569;28;20214;-82
2022/04/08 03:45:31;;;;;;;1.42;0.38;;;;;10.40;99710.00;;;;5053626;28;20677;-83
2022/04/08 03:47:58;;;;;;;2.13;0.65;;;;;10.40;99715.00;;;;5064586;28;20190;-82
2022/04/08 03:50:27;;;;;;;1.50;0.80;;;;;10.40;99716.00;;;;5058411;28;20206;-82
2022/04/08 03:52:55;;;;;;;1.00;0.28;;;;;10.40;99713.00;;;;5062248;28;20722;-82
2022/04/08 03:55:22;;;;;;;1.20;0.45;;;;;10.30;99705.00;;;;5057031;28;20192;-82
2022/04/08 03:57:49;;;;;;;1.52;0.30;;;;;10.30;99703.00;;;;5052144;28;20206;-82
2022/04/08 04:00:17;;;;;;;1.20;0.30;;;;;10.30;99711.00;;;;5073825;28;20199;-82
2022/04/08 04:02:45;;;;;;;2.92;1.70;;;;;10.20;99706.00;;;;5067736;28;20190;-82
2022/04/08 04:05:29;;;;;;;1.98;0.40;;;;;10.10;99700.00;;;;5063038;28;20203;-82
2022/04/08 04:08:00;;;;;;;1.45;0.52;;;;;10.20;99699.00;;;;5029413;28;20596;-83
2022/04/08 04:10:30;;;;;;;1.65;0.32;;;;;10.10;99698.00;;;;5034126;28;20315;-82
2022/04/08 04:12:57;;;;;;;1.10;0.20;;;;;10.10;99696.00;;;;5034257;28;20196;-83
2022/04/08 04:16:04;;;;;;;5.53;0.70;;;;;9.90;99692.00;;;;5033527;28;20176;-82
2022/04/08 04:19:08;;;;;;;1.63;0.65;;;;;9.90;99697.00;;;;5032676;28;20203;-83
2022/04/08 04:21:56;;;;;;;2.60;0.50;;;;;9.80;99689.00;;;;5033244;28;20215;-83
2022/04/08 04:24:32;;;;;;;2.35;0.55;;;;;9.80;99691.00;;;;5032898;28;20192;-82
2022/04/08 04:27:06;;;;;;;3.50;0.63;;;;;9.80;99688.00;;;;5033446;28;20230;-82
2022/04/08 04:29:35;;;;;;;7.50;0.68;;;;;9.80;99686.00;;;;5033578;28;20207;-82
2022/04/08 04:32:13;;;;;;;6.85;0.93;;;;;9.80;99683.00;;;;5037572;28;20200;-82
2022/04/08 04:34:54;;;;;;;3.47;0.60;;;;;9.70;99685.00;;;;5034006;28;20219;-82
2022/04/08 04:37:28;;;;;;;2.08;0.60;;;;;9.70;99686.00;;;;5033004;28;20200;-82
2022/04/08 04:40:10;;;;;;;1.92;0.93;;;;;9.60;99689.00;;;;5069950;28;20594;-82
2022/04/08 04:42:45;;;;;;;2.63;0.68;;;;;9.70;99692.00;;;;5056338;28;20179;-82
2022/04/08 04:45:13;;;;;;;2.35;0.80;;;;;9.70;99696.00;;;;5062027;28;20190;-82
2022/04/08 04:47:54;;;;;;;2.28;0.77;;;;;9.60;99699.00;;;;5057326;28;20282;-82
2022/04/08 04:50:29;;;;;;;3.40;0.90;;;;;9.60;99694.00;;;;5071027;28;20731;-82
2022/04/08 04:53:06;;;;;;;2.17;1.13;;;;;9.60;99700.00;;;;5055997;28;20556;-82
2022/04/08 04:55:40;;;;;;;6.00;1.30;;;;;9.60;99700.00;;;;5065311;28;20183;-82
2022/04/08 04:58:10;;;;;;;3.83;1.05;;;;;9.60;99694.00;;;;5064189;28;20187;-81
2022/04/08 05:00:37;;;;;;;1.95;0.93;;;;;9.60;99698.00;;;;5062556;28;20204;-81
2022/04/08 05:03:05;;;;;;;6.50;1.23;;;;;9.60;99699.00;;;;5051856;28;20191;-82
2022/04/08 05:05:32;;;;;;;2.22;0.93;;;;;9.60;99694.00;;;;5051752;28;20191;-81
2022/04/08 05:08:02;;;;;;;3.50;1.35;;;;;9.60;99698.00;;;;5069548;28;20207;-81
2022/04/08 05:10:31;;;;;;;3.45;1.48;;;;;9.60;99698.00;;;;5069908;28;20814;-81
2022/04/08 05:12:59;;;;;;;3.03;0.93;;;;;9.60;99699.00;;;;5052906;28;20316;-82
2022/04/08 05:15:28;;;;;;;1.80;0.77;;;;;9.60;99700.00;;;;5050123;28;20278;-81
2022/04/08 05:17:57;;;;;;;3.45;1.23;;;;;9.60;99697.00;;;;5066077;28;20191;-81
2022/04/08 05:20:26;;;;;;;2.40;1.05;;;;;9.60;99695.00;;;;5053515;28;20449;-81
2022/04/08 05:22:53;;;;;;;1.88;0.77;;;;;9.60;99694.00;;;;5051929;28;20199;-81
2022/04/08 05:25:20;;;;;;;2.70;1.02;;;;;9.60;99702.00;;;;5059711;28;20257;-80
2022/04/08 05:27:51;;;;;;;2.13;1.00;;;;;9.60;99699.00;;;;5064615;28;20207;-80
2022/04/08 05:30:18;;;;;;;2.42;1.27;;;;;9.70;99691.00;;;;5055882;28;20234;-80
2022/04/08 05:32:46;;;;;;;2.40;0.68;;;;;9.70;99700.00;;;;5066494;28;20218;-81
2022/04/08 05:35:15;;;;;;;2.10;1.10;;;;;9.70;99701.00;;;;5061500;28;20677;-82
2022/04/08 05:37:43;;;;;;;3.50;1.00;;;;;9.80;99696.00;;;;5065212;28;20191;-82
2022/04/08 05:40:16;;;;;;;2.33;1.02;;;;;9.80;99686.00;;;;5069846;28;20198;-82
2022/04/08 05:42:45;;;;;;;5.05;1.50;;;;;9.80;99686.00;;;;5065200;28;20221;-82
2022/04/08 05:45:14;;;;;;;3.25;1.00;;;;;9.80;99680.00;;;;5067611;28;20183;-81
2022/04/08 05:47:41;;;;;;;4.68;1.00;;;;;9.90;99686.00;;;;5057823;28;20287;-81
2022/04/08 05:50:11;;;;;;;3.05;1.05;;;;;9.90;99675.00;;;;5065867;28;20238;-82
2022/04/08 05:52:38;;;;;;;3.10;1.08;;;;;10.00;99683.00;;;;5068529;28;20282;-79
2022/04/08 05:55:06;;;;;;;1.63;0.73;;;;;10.00;99676.00;;;;5051976;28;20661;-82
2022/04/08 05:57:36;;;;;;;2.88;0.73;;;;;10.00;99676.00;;;;5061858;28;20210;-82
2022/04/08 06:00:14;;;;;;;2.72;1.08;;;;;10.00;99676.00;;;;5074664;28;20268;-79
2022/04/08 06:02:49;;;;;;;2.67;1.13;;;;;10.10;99679.00;;;;5061907;28;20188;-80
2022/04/08 06:05:27;;;;;;;3.92;0.90;;;;;10.10;99667.00;;;;5073245;28;20191;-80
2022/04/08 06:08:01;;;;;;;4.53;1.13;;;;;10.20;99675.00;;;;5069922;28;20201;-78
2022/04/08 06:10:36;;;;;;;2.35;0.80;;;;;10.30;99676.00;;;;5071977;28;20238;-78
2022/04/08 06:13:04;;;;;;;0.90;0.80;;;;;10.40;99681.00;;;;5062675;28;20254;-77
2022/04/08 06:15:34;;;;;;;1.10;0.77;;;;;10.50;99680.00;;;;5066938;28;20315;-75
2022/04/08 06:18:05;;;;;;;2.50;0.90;;;;;10.60;99675.00;;;;5065786;28;20274;-78
2022/04/08 06:20:33;;;;;;;3.67;0.93;;;;;10.70;99685.00;;;;5069605;28;20198;-78
2022/04/08 06:23:13;;;;;;;1.38;0.63;;;;;10.70;99681.00;;;;5073458;28;20268;-78
2022/04/08 06:25:40;;;;;;;1.70;0.63;;;;;10.80;99672.00;;;;5072052;28;20207;-78
2022/04/08 06:28:08;;;;;;;3.17;0.90;;;;;10.90;99680.00;;;;5053220;28;20219;-78
2022/04/08 06:30:39;;;;;;;1.75;0.57;;;;;11.00;99680.00;;;;5049539;28;20230;-78
2022/04/08 06:33:08;;;;;;;1.55;0.77;;;;;11.00;99688.00;;;;5060534;28;20231;-78
2022/04/08 06:35:35;;;;;;;5.57;0.88;;;;;11.10;99685.00;;;;5049343;28;20215;-78
2022/04/08 06:38:04;;;;;;;2.45;0.85;;;;;11.20;99685.00;;;;5049517;28;20207;-78
2022/04/08 06:40:32;;;;;;;3.17;0.82;;;;;11.30;99681.00;;;;5053661;28;20211;-78
2022/04/08 06:43:00;;;;;;;1.98;0.55;;;;;11.30;99686.00;;;;5062781;28;20206;-78
2022/04/08 06:45:28;;;;;;;0.82;0.57;;;;;11.40;99684.00;;;;5069795;28;20292;-78
2022/04/08 06:47:57;;;;;;;2.13;0.70;;;;;11.40;99677.00;;;;5064947;28;20196;-78
2022/04/08 06:50:25;;;;;;;3.28;1.20;;;;;11.50;99674.00;;;;5049345;28;20227;-78
2022/04/08 06:52:55;;;;;;;1.52;0.40;;;;;11.60;99684.00;;;;5049617;28;20199;-78
2022/04/08 06:55:24;;;;;;;2.95;0.57;;;;;11.70;99684.00;;;;5049216;28;20191;-78
2022/04/08 06:57:51;;;;;;;4.18;0.60;;;;;11.80;99675.00;;;;5055256;28;20195;-78
2022/04/08 07:00:18;;;;;;;4.22;1.02;;;;;11.80;99681.00;;;;5068397;28;20211;-78
2022/04/08 07:02:46;;;;;;;3.22;0.63;;;;;11.90;99682.00;;;;5067141;28;20202;-78
2022/04/08 07:05:14;;;;;;;2.60;0.65;;;;;12.00;99682.00;;;;5069062;28;20203;-78
2022/04/08 07:07:45;;;;;;;1.20;0.85;;;;;12.10;99681.00;;;;5055359;28;20191;-79
2022/04/08 07:10:12;;;;;;;1.15;0.63;;;;;12.10;99679.00;;;;5061222;28;20294;-78
2022/04/08 07:12:40;;;;;;;3.40;1.10;;;;;12.20;99684.00;;;;5068130;28;20203;-78
2022/04/08 07:15:08;;;;;;;2.17;0.50;;;;;12.20;99675.00;;;;5068230;28;20198;-79
2022/04/08 07:17:36;;;;;;;2.45;0.55;;;;;12.30;99671.00;;;;5054603;28;20614;-78
2022/04/08 07:20:05;;;;;;;1.50;0.65;;;;;12.40;99680.00;;;;5069344;28;20202;-78
2022/04/08 07:22:34;;;;;;;2.70;0.90;;;;;12.50;99688.00;;;;5068120;28;20226;-78
2022/04/08 07:25:01;;;;;;;0.75;0.45;;;;;12.60;99683.00;;;;5065953;28;20191;-77
2022/04/08 07:27:28;;;;;;;1.80;0.60;;;;;12.70;99688.00;;;;5066513;28;20195;-76
2022/04/08 07:29:56;;;;;;;1.13;0.43;;;;;12.70;99675.00;;;;5068635;28;20191;-76
2022/04/08 07:32:23;;;;;;;1.10;0.57;;;;;12.80;99681.00;;;;5067287;28;20223;-76
2022/04/08 07:34:51;;;;;;;1.98;0.60;;;;;12.90;99678.00;;;;5068500;28;20252;-76
2022/04/08 07:37:29;;;;;;;0.90;0.50;;;;;12.90;99672.00;;;;5051810;28;20215;-77
2022/04/08 07:39:58;;;;;;;3.08;1.25;;;;;13.10;99682.00;;;;5056877;28;20210;-77
2022/04/08 07:42:25;;;;;;;3.58;0.73;;;;;13.10;99679.00;;;;5067808;28;20653;-77
2022/04/08 07:44:52;;;;;;;1.52;0.52;;;;;13.20;99678.00;;;;5055567;28;20278;-77
2022/04/08 07:47:20;;;;;;;1.35;0.57;;;;;13.20;99674.00;;;;5047950;28;20345;-77
2022/04/08 07:49:48;;;;;;;1.90;0.50;;;;;13.30;99669.00;;;;5048363;28;20203;-77
2022/04/08 07:52:15;;;;;;;1.40;0.73;;;;;13.40;99672.00;;;;5047937;28;20219;-77
2022/04/08 07:54:45;;;;;;;3.28;1.05;;;;;13.40;99665.00;;;;5048439;28;20665;-77
2022/04/08 07:57:15;;;;;;;2.20;0.60;;;;;13.50;99666.00;;;;5059516;28;20205;-77
2022/04/08 07:59:43;;;;;;;2.15;0.63;;;;;13.60;99654.00;;;;5067964;28;20198;-77
2022/04/08 08:02:10;;;;;;;1.00;0.50;;;;;13.70;99666.00;;;;5067661;28;20252;-77
2022/04/08 08:04:37;;;;;;;7.28;1.38;;;;;13.70;99658.00;;;;5048758;28;20200;-77
2022/04/08 08:07:05;;;;;;;17.73;1.08;;;;;13.80;99663.00;;;;5049069;28;20199;-77
2022/04/08 08:09:33;;;;;;;1.48;0.40;;;;;13.80;99663.00;;;;5050464;28;20208;-77
2022/04/08 08:12:01;;;;;;;2.00;0.47;;;;;13.90;99659.00;;;;5060983;28;20574;-76
2022/04/08 08:14:30;;;;;;;3.45;0.90;;;;;13.90;99665.00;;;;5057230;28;20222;-77
2022/04/08 08:16:57;;;;;;;2.38;0.70;;;;;14.00;99657.00;;;;5066612;28;20202;-78
2022/04/08 08:19:24;;;;;;;3.10;0.82;;;;;14.00;99663.00;;;;5066171;28;20211;-77
2022/04/08 08:21:51;;;;;;;3.13;0.63;;;;;14.10;99656.00;;;;5063288;28;20215;-77
2022/04/08 08:24:18;;;;;;;2.22;0.60;;;;;14.20;99652.00;;;;5067333;28;20206;-77
2022/04/08 08:26:46;;;;;;;3.88;0.85;;;;;14.30;99652.00;;;;5068036;28;20711;-77
2022/04/08 08:29:13;;;;;;;1.45;0.52;;;;;14.30;99661.00;;;;5068044;28;20191;-77
2022/04/08 08:31:41;;;;;;;1.73;0.50;;;;;14.40;99658.00;;;;5065970;28;20226;-77
2022/04/08 08:34:09;;;;;;;1.35;0.60;;;;;14.50;99652.00;;;;5051714;28;20222;-77
2022/04/08 08:36:36;;;;;;;1.40;0.50;;;;;14.50;99648.00;;;;5067090;28;20191;-78
2022/04/08 08:39:03;;;;;;;0.88;0.30;;;;;14.60;99646.00;;;;5067906;28;20270;-78
2022/04/08 08:41:32;;;;;;;2.22;0.65;;;;;14.60;99643.00;;;;5053196;28;20349;-78
2022/04/08 08:43:59;;;;;;;1.40;0.68;;;;;14.70;99640.00;;;;5047485;28;20199;-77
2022/04/08 08:46:27;;;;;;;2.80;0.90;;;;;14.80;99627.00;;;;5047485;28;20206;-76
2022/04/08 08:48:57;;;;;;;1.77;0.85;;;;;14.80;99624.00;;;;5054308;28;20207;-78
2022/04/08 08:51:25;;;;;;;4.47;0.98;;;;;14.90;99635.00;;;;5069407;28;20218;-78
2022/04/08 08:53:53;;;;;;;1.92;0.90;;;;;15.00;99629.00;;;;5051475;28;20664;-78
2022/04/08 08:56:20;;;;;;;0.98;0.60;;;;;15.10;99631.00;;;;5051333;28;20267;-78
2022/04/08 08:58:48;;;;;;;1.65;0.63;;;;;15.20;99632.00;;;;5051894;28;20261;-79
2022/04/08 09:01:15;;;;;;;2.65;0.68;;;;;15.20;99625.00;;;;5051781;28;20204;-78
2022/04/08 09:03:44;;;;;;;4.22;0.52;;;;;15.30;99620.00;;;;5062587;28;20195;-78
2022/04/08 09:06:13;;;;;;;2.95;0.77;;;;;15.30;99616.00;;;;5065389;28;20207;-77
2022/04/08 09:08:42;;;;;;;2.08;0.73;;;;;15.50;99617.00;;;;5071526;28;20600;-77
2022/04/08 09:11:09;;;;;;;1.77;0.77;;;;;15.50;99612.00;;;;5066644;28;20708;-77
2022/04/08 09:13:49;;;;;;;3.00;0.80;;;;;15.60;99611.00;;;;5065766;28;20553;-77
2022/04/08 09:16:27;;;;;;;1.50;0.60;;;;;15.60;99605.00;;;;5050984;28;20218;-76
2022/04/08 09:18:54;;;;;;;5.22;0.80;;;;;15.80;99612.00;;;;5051228;28;20657;-78
2022/04/08 09:21:26;;;;;;;4.15;0.80;;;;;15.80;99604.00;;;;5054106;28;20894;-77
2022/04/08 09:23:53;;;;;;;3.38;0.57;;;;;15.90;99609.00;;;;5070464;28;20218;-78
2022/04/08 09:26:21;;;;;;;2.22;0.95;;;;;16.00;99605.00;;;;5069741;28;20210;-78
2022/04/08 09:28:53;;;;;;;4.22;0.60;;;;;16.00;99618.00;;;;5070556;28;20642;-78
2022/04/08 09:31:21;;;;;;;2.33;0.77;;;;;16.10;99628.00;;;;5056459;28;20638;-78
2022/04/08 09:33:50;;;;;;;6.97;1.10;;;;;16.20;99624.00;;;;5063990;28;20233;-78
2022/04/08 09:36:30;;;;;;;0.98;0.70;;;;;16.10;99614.00;;;;5069187;28;20252;-78
2022/04/08 09:38:57;;;;;;;1.92;0.82;;;;;16.30;99608.00;;;;5068077;28;20228;-78
2022/04/08 09:41:38;;;;;;;1.70;0.73;;;;;16.20;99604.00;;;;5050873;28;20211;-78
2022/04/08 09:44:06;;;;;;;1.55;0.60;;;;;16.40;99604.00;;;;5067831;28;20559;-78
2022/04/08 09:46:34;;;;;;;2.17;0.70;;;;;16.40;99600.00;;;;5069340;28;20564;-79
2022/04/08 09:49:02;;;;;;;2.38;0.70;;;;;16.40;99600.00;;;;5053348;28;20215;-78
2022/04/08 09:51:33;;;;;;;3.22;1.15;;;;;16.40;99603.00;;;;5050173;28;20219;-78
2022/04/08 09:54:02;;;;;;;1.42;0.70;;;;;16.50;99602.00;;;;5050307;28;20230;-78
2022/04/08 09:56:30;;;;;;;4.05;0.85;;;;;16.50;99590.00;;;;5062860;28;20207;-78
2022/04/08 09:59:02;;;;;;;1.25;0.65;;;;;16.40;99601.00;;;;5070336;28;20207;-79
2022/04/08 10:01:30;;;;;;;2.58;0.88;;;;;16.40;99597.00;;;;5064540;28;20203;-79
2022/04/08 10:03:57;;;;;;;2.25;0.70;;;;;16.50;99594.00;;;;5060560;28;20214;-78
2022/04/08 10:06:25;;;;;;;1.50;0.68;;;;;16.40;99603.00;;;;5069504;28;20203;-79
2022/04/08 10:08:54;;;;;;;3.47;1.08;;;;;16.40;99602.00;;;;5057813;28;20207;-78
2022/04/08 10:11:26;;;;;;;1.83;0.80;;;;;16.40;99598.00;;;;5060108;28;20223;-78
2022/04/08 10:14:11;;;;;;;2.30;0.45;;;;;16.40;99595.00;;;;5069257;28;20210;-78
2022/04/08 10:16:40;;;;;;;3.20;0.57;;;;;16.40;99605.00;;;;5069084;28;20245;-79
2022/04/08 10:19:08;;;;;;;4.40;0.70;;;;;16.40;99598.00;;;;5054169;28;20199;-79
2022/04/08 10:21:40;;;;;;;3.17;0.90;;;;;16.40;99604.00;;;;5056679;28;20748;-79
2022/04/08 10:24:15;;;;;;;2.72;0.57;;;;;16.40;99614.00;;;;5069301;28;20199;-79
2022/04/08 10:27:09;;;;;;;2.97;0.50;;;;;16.40;99613.00;;;;5069667;28;20217;-78
2022/04/08 10:29:38;;;;;;;4.68;0.50;;;;;16.50;99613.00;;;;5037745;28;20579;-79
2022/04/08 10:32:14;;;;;;;1.73;0.80;;;;;16.40;99611.00;;;;5069307;28;20223;-79
2022/04/08 10:34:42;;;;;;;2.65;0.70;;;;;16.50;99599.00;;;;5069347;28;20223;-79
2022/04/08 10:37:16;;;;;;;2.10;0.40;;;;;16.40;99605.00;;;;5066930;28;20198;-79
2022/04/08 10:39:56;;;;;;;2.95;0.73;;;;;16.40;99600.00;;;;5049193;28;20202;-78
2022/04/08 10:42:24;;;;;;;3.35;0.82;;;;;16.40;99598.00;;;;5050051;28;20261;-78
2022/04/08 10:44:51;;;;;;;3.40;0.40;;;;;16.50;99602.00;;;;5060401;28;20257;-79
2022/04/08 10:47:21;;;;;;;1.23;0.40;;;;;16.50;99592.00;;;;5049003;28;20676;-79
2022/04/08 10:49:52;;;;;;;3.50;0.40;;;;;16.50;99591.00;;;;5056231;28;21061;-79
2022/04/08 10:52:24;;;;;;;2.25;0.50;;;;;16.50;99600.00;;;;5049177;28;20219;-79
2022/04/08 10:55:04;;;;;;;2.97;0.50;;;;;16.50;99607.00;;;;5049043;28;20612;-79
2022/04/08 10:57:34;;;;;;;1.00;0.60;;;;;16.50;99609.00;;;;5065066;28;20668;-78
2022/04/08 11:00:06;;;;;;;2.55;0.80;;;;;16.50;99619.00;;;;5068266;28;20615;-79
2022/04/08 11:02:37;;;;;;;2.17;0.30;;;;;16.50;99621.00;;;;5067824;28;20198;-79
2022/04/08 11:05:05;;;;;;;2.35;0.50;;;;;16.60;99612.00;;;;5054346;28;20208;-79
2022/04/08 11:07:33;;;;;;;2.90;0.52;;;;;16.60;99613.00;;;;5047818;28;20662;-78
2022/04/08 11:10:03;;;;;;;2.38;0.52;;;;;16.60;99607.00;;;;5048246;28;20198;-78
2022/04/08 11:12:31;;;;;;;1.50;0.60;;;;;16.70;99599.00;;;;5047549;28;20234;-78
2022/04/08 11:14:59;;;;;;;0.68;0.45;;;;;16.80;99599.00;;;;5067626;28;20205;-79
2022/04/08 11:17:35;;;;;;;1.35;0.30;;;;;16.70;99601.00;;;;5067489;28;20207;-78
2022/04/08 11:20:05;;;;;;;1.08;0.63;;;;;16.70;99597.00;;;;5048056;28;20282;-78
2022/04/08 11:22:40;;;;;;;2.97;0.70;;;;;16.70;99589.00;;;;5047887;28;20319;-79
2022/04/08 11:25:10;;;;;;;2.03;0.60;;;;;16.70;99593.00;;;;5049226;28;20294;-79
2022/04/08 11:27:38;;;;;;;2.53;0.57;;;;;16.70;99600.00;;;;5052663;28;20196;-79
2022/04/08 11:30:11;;;;;;;2.08;0.50;;;;;16.70;99596.00;;;;5052816;28;20195;-79
2022/04/08 11:32:40;;;;;;;4.00;0.68;;;;;16.80;99592.00;;;;5068268;28;20219;-78
2022/04/08 11:35:14;;;;;;;1.15;0.50;;;;;16.80;99593.00;;;;5048865;28;20230;-79
2022/04/08 11:37:42;;;;;;;4.65;0.70;;;;;16.90;99585.00;;;;5056118;28;20221;-79
2022/04/08 11:40:18;;;;;;;1.05;0.30;;;;;16.90;99577.00;;;;5058372;28;20198;-79
2022/04/08 11:42:46;;;;;;;1.77;0.32;;;;;17.10;99573.00;;;;5069024;28;20281;-78
2022/04/08 11:45:13;;;;;;;1.30;0.50;;;;;17.10;99574.00;;;;5058639;28;20278;-80
2022/04/08 11:47:47;;;;;;;1.98;0.50;;;;;17.10;99575.00;;;;5049242;28;20206;-79
2022/04/08 11:50:14;;;;;;;1.52;0.68;;;;;17.20;99567.00;;;;5054916;28;20199;-79
2022/04/08 11:52:53;;;;;;;2.10;0.40;;;;;17.20;99566.00;;;;5051520;28;20215;-80
2022/04/08 11:55:25;;;;;;;1.35;0.60;;;;;17.40;99557.00;;;;5061140;28;20631;-80
2022/04/08 11:57:53;;;;;;;1.73;0.65;;;;;17.40;99562.00;;;;5066494;28;20203;-80
2022/04/08 12:00:26;;;;;;;3.33;1.08;;;;;17.40;99553.00;;;;5053841;28;20211;-80
2022/04/08 12:02:54;;;;;;;4.53;0.93;;;;;17.40;99552.00;;;;5055624;28;20256;-82
2022/04/08 12:05:25;;;;;;;1.58;0.50;;;;;17.30;99547.00;;;;5048092;28;20207;-80
2022/04/08 12:07:53;;;;;;;3.72;0.70;;;;;17.30;99542.00;;;;5049198;28;20245;-80
2022/04/08 12:10:24;;;;;;;1.15;0.43;;;;;17.20;99539.00;;;;5063515;28;20194;-80
2022/04/08 12:12:52;;;;;;;2.10;0.63;;;;;17.30;99542.00;;;;5068331;28;20222;-80
2022/04/08 12:15:22;;;;;;;1.75;0.50;;;;;17.20;99544.00;;;;5048633;28;20195;-81
2022/04/08 12:17:50;;;;;;;1.55;0.50;;;;;17.20;99543.00;;;;5048197;28;20241;-80
2022/04/08 12:20:19;;;;;;;2.90;0.43;;;;;17.20;99549.00;;;;5053827;28;20198;-80
2022/04/08 12:22:48;;;;;;;3.10;0.70;;;;;17.20;99546.00;;;;5061010;28;20226;-80
2022/04/08 12:25:17;;;;;;;0.80;0.30;;;;;17.10;99536.00;;;;5071501;28;20206;-80
2022/04/08 12:27:52;;;;;;;1.33;0.40;;;;;17.10;99528.00;;;;5065630;28;20261;-80
2022/04/08 12:30:25;;;;;;;2.92;0.50;;;;;17.20;99540.00;;;;5058174;28;20265;-79
2022/04/08 12:32:53;;;;;;;1.25;0.47;;;;;17.20;99536.00;;;;5067019;28;20238;-78
2022/04/08 12:35:20;;;;;;;1.60;0.40;;;;;17.30;99531.00;;;;5071436;28;20199;-78
2022/04/08 12:37:48;;;;;;;1.92;0.50;;;;;17.30;99527.00;;;;5058316;28;20203;-79